Time;durP1;ratioP1;P1;durP2;ratioP2;P2;SDS_P1;SDS_P2;PMS_P1;PMS_P2;Temp;Humidity;BMP_temperature;BMP_pressure;BME280_temperature;BME280_humidity;BME280_pressure;Samples;Min_cycle;Max_cycle;Signal;HPM_P1;HPM_P2
2024/01/31 00:01:10;;;;;;;76.70;72.90;;;;;;;10.32;68.20;103323.47;5065391;28;20045;-72
2024/01/31 00:03:36;;;;;;;73.90;69.97;;;;;;;10.32;68.38;103323.47;5063554;28;20036;-71
2024/01/31 00:06:02;;;;;;;73.18;69.72;;;;;;;10.31;68.09;103319.09;5052432;28;20366;-71
2024/01/31 00:08:27;;;;;;;74.30;70.63;;;;;;;10.31;68.14;103321.78;5073142;28;20028;-71
2024/01/31 00:10:53;;;;;;;74.00;70.47;;;;;;;10.30;68.02;103323.63;5070530;28;20435;-71
2024/01/31 00:13:18;;;;;;;70.95;67.50;;;;;;;10.29;68.49;103331.94;5071941;28;20064;-71
2024/01/31 00:15:43;;;;;;;72.82;69.28;;;;;;;10.29;68.33;103335.47;5065253;28;20032;-70
2024/01/31 00:18:09;;;;;;;78.82;74.47;;;;;;;10.28;68.23;103341.91;5055203;28;20427;-71
2024/01/31 00:20:34;;;;;;;71.32;67.60;;;;;;;10.27;68.57;103342.03;5068113;28;20139;-70
2024/01/31 00:23:00;;;;;;;72.07;68.57;;;;;;;10.27;68.04;103350.13;5072665;28;20465;-71
2024/01/31 00:25:25;;;;;;;76.07;72.03;;;;;;;10.26;68.20;103359.28;5069501;28;22085;-71
2024/01/31 00:27:51;;;;;;;73.28;69.78;;;;;;;10.27;68.36;103363.66;5065795;28;20064;-71
2024/01/31 00:30:17;;;;;;;76.72;72.63;;;;;;;10.27;68.29;103360.94;5062567;28;20461;-72
2024/01/31 00:32:42;;;;;;;72.78;69.18;;;;;;;10.26;68.20;103356.56;5072877;28;20032;-72
2024/01/31 00:35:08;;;;;;;75.85;72.13;;;;;;;10.24;67.96;103356.72;5070013;28;20536;-71
2024/01/31 00:37:33;;;;;;;72.05;68.65;;;;;;;10.23;68.14;103357.75;5071383;28;20035;-71
2024/01/31 00:39:59;;;;;;;72.78;69.03;;;;;;;10.23;68.09;103375.81;5072193;28;20032;-71
2024/01/31 00:42:24;;;;;;;71.05;67.65;;;;;;;10.22;68.17;103372.28;5068605;28;20044;-72
2024/01/31 00:44:49;;;;;;;77.63;73.55;;;;;;;10.22;68.34;103366.03;5066192;28;20048;-72
2024/01/31 00:47:15;;;;;;;74.15;70.25;;;;;;;10.21;67.96;103369.75;5071937;28;20135;-71
2024/01/31 00:49:40;;;;;;;79.70;75.63;;;;;;;10.22;68.01;103366.88;5071867;28;20985;-71
2024/01/31 00:52:06;;;;;;;74.05;70.45;;;;;;;10.21;68.07;103370.59;5063439;28;20048;-71
2024/01/31 00:54:31;;;;;;;73.93;69.85;;;;;;;10.20;68.09;103366.19;5072059;28;20040;-71
2024/01/31 00:56:56;;;;;;;74.35;70.22;;;;;;;10.20;68.02;103368.91;5069243;28;20033;-71
2024/01/31 00:59:22;;;;;;;72.95;69.38;;;;;;;10.19;68.13;103370.75;5056996;28;20425;-71
2024/01/31 01:01:47;;;;;;;75.28;71.13;;;;;;;10.18;68.22;103377.19;5068451;28;20024;-71
2024/01/31 01:04:13;;;;;;;76.35;71.97;;;;;;;10.16;67.94;103379.22;5062211;28;20070;-71
2024/01/31 01:06:41;;;;;;;74.70;70.85;;;;;;;10.16;68.09;103376.53;5055869;28;20024;-71
2024/01/31 01:09:07;;;;;;;71.90;68.18;;;;;;;10.17;68.00;103371.97;5070098;28;20045;-71
2024/01/31 01:11:33;;;;;;;73.38;69.88;;;;;;;10.17;68.00;103385.47;5071628;28;20029;-70
2024/01/31 01:13:58;;;;;;;70.63;66.88;;;;;;;10.16;68.01;103376.53;5072060;28;20464;-71
2024/01/31 01:16:24;;;;;;;71.28;67.90;;;;;;;10.15;68.24;103371.28;5071620;28;20032;-71
2024/01/31 01:18:49;;;;;;;74.03;70.32;;;;;;;10.14;68.03;103365.03;5063358;28;20381;-72
2024/01/31 01:21:15;;;;;;;72.93;69.40;;;;;;;10.14;68.04;103364.22;5071391;28;20048;-71
2024/01/31 01:23:40;;;;;;;72.53;68.80;;;;;;;10.14;68.02;103369.63;5071074;28;20036;-71
2024/01/31 01:26:05;;;;;;;72.75;69.30;;;;;;;10.14;68.01;103366.91;5071776;28;20476;-72
2024/01/31 01:28:31;;;;;;;73.38;69.97;;;;;;;10.13;68.03;103366.06;5062217;28;20037;-71
2024/01/31 01:30:56;;;;;;;73.70;70.10;;;;;;;10.12;67.96;103375.19;5070408;28;20486;-71
2024/01/31 01:33:21;;;;;;;73.50;69.80;;;;;;;10.12;67.95;103375.19;5071380;28;20044;-71
2024/01/31 01:35:47;;;;;;;78.38;74.15;;;;;;;10.11;68.29;103370.81;5070491;28;20120;-71
2024/01/31 01:38:12;;;;;;;76.03;72.18;;;;;;;10.11;68.15;103369.97;5069209;28;20086;-71
2024/01/31 01:40:45;;;;;;;70.43;66.93;;;;;;;10.11;68.12;103375.38;5069564;28;20036;-71
2024/01/31 01:43:15;;;;;;;72.50;68.82;;;;;;;10.11;67.92;103380.78;5071336;28;20029;-71
2024/01/31 01:45:40;;;;;;;70.63;67.32;;;;;;;10.11;67.98;103380.78;5066962;28;20039;-71
2024/01/31 01:48:06;;;;;;;71.55;67.95;;;;;;;10.09;68.07;103383.63;5071665;28;20032;-71
2024/01/31 01:50:32;;;;;;;73.28;69.72;;;;;;;10.10;67.96;103373.66;5060199;28;20071;-71
2024/01/31 01:52:58;;;;;;;70.82;67.50;;;;;;;10.08;67.95;103373.88;5071315;28;20029;-71
2024/01/31 01:55:23;;;;;;;73.47;69.72;;;;;;;10.08;67.96;103371.16;5069156;28;20029;-72
2024/01/31 01:57:49;;;;;;;75.38;71.28;;;;;;;10.08;67.82;103376.56;5067131;28;20070;-72
2024/01/31 02:00:16;;;;;;;75.05;71.07;;;;;;;10.08;68.04;103376.56;5065847;28;20037;-71
2024/01/31 02:02:42;;;;;;;73.93;70.35;;;;;;;10.08;67.86;103375.69;5070467;28;20044;-71
2024/01/31 02:05:08;;;;;;;73.00;69.50;;;;;;;10.07;67.93;103368.63;5063941;28;20033;-72
2024/01/31 02:07:34;;;;;;;74.25;69.63;;;;;;;10.06;67.81;103377.75;5067805;28;20028;-71
2024/01/31 02:10:00;;;;;;;74.05;70.57;;;;;;;10.06;67.88;103373.19;5069434;28;20028;-71
2024/01/31 02:12:26;;;;;;;70.47;66.68;;;;;;;10.06;67.97;103366.94;5069556;28;20120;-71
2024/01/31 02:14:52;;;;;;;70.38;66.63;;;;;;;10.06;67.82;103361.56;5068799;28;20124;-71
2024/01/31 02:17:18;;;;;;;71.47;67.72;;;;;;;10.03;68.23;103362.75;5070768;28;20032;-72
2024/01/31 02:19:43;;;;;;;69.70;66.20;;;;;;;10.05;67.97;103359.84;5071037;28;20058;-71
2024/01/31 02:22:27;;;;;;;70.38;66.88;;;;;;;10.04;67.65;103359.00;5066264;28;20404;-71
2024/01/31 02:24:52;;;;;;;72.15;68.55;;;;;;;10.03;67.84;103356.47;5071069;28;20033;-71
2024/01/31 02:27:18;;;;;;;70.65;66.95;;;;;;;10.02;67.66;103360.22;5070511;28;20426;-71
2024/01/31 02:29:43;;;;;;;68.82;65.47;;;;;;;10.02;67.96;103366.44;5066453;28;20477;-72
2024/01/31 02:32:09;;;;;;;72.80;69.03;;;;;;;10.02;67.62;103371.00;5058754;28;20040;-71
2024/01/31 02:34:34;;;;;;;68.80;65.50;;;;;;;10.02;67.70;103373.72;5070081;28;20036;-72
2024/01/31 02:37:00;;;;;;;69.00;65.68;;;;;;;10.02;67.79;103371.00;5074493;28;20036;-71
2024/01/31 02:39:25;;;;;;;73.70;69.95;;;;;;;10.01;67.71;103377.44;5055599;28;20025;-71
2024/01/31 02:41:53;;;;;;;65.93;62.67;;;;;;;10.00;67.99;103370.34;5069541;28;20052;-71
2024/01/31 02:44:19;;;;;;;67.90;64.38;;;;;;;10.00;67.96;103368.47;5070898;28;20036;-72
2024/01/31 02:46:44;;;;;;;70.15;66.75;;;;;;;9.99;67.69;103363.25;5074196;28;20039;-70
2024/01/31 02:49:10;;;;;;;73.72;69.57;;;;;;;9.97;67.84;103358.84;5072497;28;20483;-71
2024/01/31 02:51:35;;;;;;;69.20;65.95;;;;;;;9.97;67.84;103358.84;5073245;28;20029;-71
2024/01/31 02:54:01;;;;;;;68.20;64.72;;;;;;;9.99;67.80;103355.16;5063707;28;20114;-71
2024/01/31 02:56:26;;;;;;;69.72;66.22;;;;;;;9.97;67.74;103358.03;5065728;28;20419;-71
2024/01/31 02:58:52;;;;;;;71.80;67.93;;;;;;;9.95;67.82;103336.63;5072461;28;20033;-73
2024/01/31 03:01:18;;;;;;;72.88;69.43;;;;;;;9.95;67.60;103333.91;5073845;28;20051;-72
2024/01/31 03:03:43;;;;;;;72.60;68.80;;;;;;;9.96;67.45;103337.44;5060132;28;20191;-71
2024/01/31 03:06:08;;;;;;;73.50;69.70;;;;;;;9.94;67.59;103337.63;5074384;28;20037;-71
2024/01/31 03:08:34;;;;;;;73.05;69.50;;;;;;;9.96;67.61;103326.66;5071885;28;20051;-70
2024/01/31 03:10:59;;;;;;;72.50;69.00;;;;;;;9.94;67.60;103325.97;5069641;28;20043;-70
2024/01/31 03:13:25;;;;;;;73.32;69.72;;;;;;;9.94;67.66;103320.59;5064680;28;20037;-73
2024/01/31 03:15:50;;;;;;;69.90;66.28;;;;;;;9.92;67.46;103320.75;5066013;28;20071;-72
2024/01/31 03:18:15;;;;;;;72.18;68.57;;;;;;;9.93;67.74;103325.16;5073705;28;20060;-71
2024/01/31 03:20:41;;;;;;;70.70;67.05;;;;;;;9.91;67.65;103329.88;5073593;28;20377;-71
2024/01/31 03:23:06;;;;;;;72.32;68.72;;;;;;;9.91;67.65;103319.06;5071024;28;20044;-71
2024/01/31 03:25:31;;;;;;;69.97;66.38;;;;;;;9.91;67.65;103315.53;5071299;28;20032;-71
2024/01/31 03:27:57;;;;;;;70.32;66.82;;;;;;;9.91;67.63;103308.28;5056127;28;20033;-72
2024/01/31 03:30:22;;;;;;;70.50;67.05;;;;;;;9.90;67.69;103306.59;5072213;28;20064;-70
2024/01/31 03:32:47;;;;;;;70.82;66.55;;;;;;;9.90;67.72;103308.44;5072422;28;20036;-70
2024/01/31 03:35:13;;;;;;;68.82;65.57;;;;;;;9.89;67.65;103304.06;5055377;28;20529;-72
2024/01/31 03:37:38;;;;;;;71.90;68.50;;;;;;;9.88;67.92;103302.41;5073085;28;20032;-71
2024/01/31 03:40:08;;;;;;;68.47;65.18;;;;;;;9.87;67.70;103309.63;5071845;28;20029;-71
2024/01/31 03:42:34;;;;;;;72.72;69.07;;;;;;;9.85;67.76;103314.38;5071653;28;20086;-71
2024/01/31 03:44:59;;;;;;;70.90;67.65;;;;;;;9.84;67.66;103309.16;5058901;28;20029;-71
2024/01/31 03:47:25;;;;;;;74.10;69.63;;;;;;;9.84;67.69;103309.16;5069239;28;20033;-74
2024/01/31 03:49:52;;;;;;;70.10;66.63;;;;;;;9.84;67.62;103309.16;5069808;28;20093;-71
2024/01/31 03:52:17;;;;;;;71.25;67.57;;;;;;;9.84;67.85;103309.97;5073459;28;20029;-72
2024/01/31 03:54:43;;;;;;;70.97;67.68;;;;;;;9.83;67.65;103319.13;5062968;28;20090;-71
2024/01/31 03:57:09;;;;;;;70.45;67.03;;;;;;;9.82;67.66;103325.50;5072915;28;20055;-71
2024/01/31 03:59:34;;;;;;;70.57;66.97;;;;;;;9.82;67.77;103319.28;5072914;28;20143;-71
2024/01/31 04:02:00;;;;;;;71.93;67.55;;;;;;;9.82;67.75;103305.78;5073292;28;20380;-71
2024/01/31 04:04:25;;;;;;;72.55;68.50;;;;;;;9.81;67.58;103313.03;5070512;28;20040;-71
2024/01/31 04:06:51;;;;;;;68.88;65.32;;;;;;;9.80;67.52;103303.25;5071174;28;20384;-71
2024/01/31 04:09:16;;;;;;;70.07;66.68;;;;;;;9.79;67.67;103315.06;5070302;28;20477;-71
2024/01/31 04:11:42;;;;;;;68.53;65.05;;;;;;;9.79;67.54;103308.84;5072248;28;20041;-71
2024/01/31 04:14:07;;;;;;;69.82;66.45;;;;;;;9.78;67.69;103308.00;5071817;28;20127;-71
2024/01/31 04:16:33;;;;;;;69.68;65.63;;;;;;;9.77;67.70;103306.28;5055294;28;20509;-71
2024/01/31 04:18:58;;;;;;;66.88;63.83;;;;;;;9.77;67.57;103311.69;5064894;28;20393;-72
2024/01/31 04:21:24;;;;;;;69.88;66.05;;;;;;;9.78;67.91;103307.13;5070959;28;20123;-71
2024/01/31 04:23:50;;;;;;;70.72;67.32;;;;;;;9.75;67.51;103306.50;5072768;28;20025;-71
2024/01/31 04:26:15;;;;;;;71.18;67.80;;;;;;;9.75;67.62;103311.88;5065943;28;20465;-72
2024/01/31 04:28:41;;;;;;;70.72;66.82;;;;;;;9.75;67.74;103309.19;5065452;28;20469;-71
2024/01/31 04:31:14;;;;;;;66.90;63.70;;;;;;;9.75;67.42;103317.28;5072733;28;20052;-72
2024/01/31 04:33:40;;;;;;;67.95;64.70;;;;;;;9.75;67.66;103321.81;5072532;28;20078;-71
2024/01/31 04:36:06;;;;;;;71.40;67.90;;;;;;;9.75;67.76;103313.72;5069976;28;20037;-72
2024/01/31 04:38:31;;;;;;;68.18;64.95;;;;;;;9.74;67.51;103310.19;5052803;28;20136;-71
2024/01/31 04:40:56;;;;;;;69.07;65.75;;;;;;;9.74;67.48;103312.06;5069830;28;20119;-73
2024/01/31 04:43:22;;;;;;;68.20;64.47;;;;;;;9.73;67.54;103300.41;5071251;28;20070;-72
2024/01/31 04:45:47;;;;;;;69.82;66.18;;;;;;;9.72;67.45;103303.28;5066629;28;20032;-71
2024/01/31 04:48:13;;;;;;;68.72;65.43;;;;;;;9.72;67.47;103300.59;5070268;28;20037;-71
2024/01/31 04:50:38;;;;;;;68.07;64.80;;;;;;;9.71;67.38;103305.16;5071889;28;20032;-71
2024/01/31 04:53:04;;;;;;;70.32;66.78;;;;;;;9.71;67.60;103304.31;5072314;28;20033;-72
2024/01/31 04:55:29;;;;;;;69.40;65.93;;;;;;;9.71;67.47;103309.69;5069239;28;20481;-71
2024/01/31 04:57:55;;;;;;;68.18;64.63;;;;;;;9.70;67.25;103308.00;5069977;28;20037;-72
2024/01/31 05:00:23;;;;;;;68.10;64.50;;;;;;;9.69;67.52;103309.03;5062627;28;20071;-72
2024/01/31 05:02:49;;;;;;;67.97;64.68;;;;;;;9.67;67.43;103301.09;5068749;28;20056;-72
2024/01/31 05:05:15;;;;;;;64.93;61.90;;;;;;;9.67;67.47;103297.56;5057846;28;20392;-71
2024/01/31 05:07:40;;;;;;;71.32;67.18;;;;;;;9.66;67.46;103295.88;5070769;28;20036;-71
2024/01/31 05:10:06;;;;;;;69.03;65.63;;;;;;;9.66;67.81;103295.88;5070836;28;20020;-71
2024/01/31 05:12:31;;;;;;;70.88;67.38;;;;;;;9.65;67.41;103295.06;5071147;28;20036;-72
2024/01/31 05:14:57;;;;;;;68.57;65.05;;;;;;;9.65;67.58;103286.97;5070128;28;20044;-71
2024/01/31 05:17:22;;;;;;;70.20;66.75;;;;;;;9.65;67.45;103286.09;5071925;28;20035;-71
2024/01/31 05:19:48;;;;;;;66.53;63.20;;;;;;;9.64;67.52;103284.41;5069025;28;20048;-71
2024/01/31 05:22:13;;;;;;;68.80;65.50;;;;;;;9.65;67.43;103283.41;5066099;28;20128;-72
2024/01/31 05:24:39;;;;;;;69.78;66.20;;;;;;;9.64;67.50;103287.13;5067106;28;20040;-71
2024/01/31 05:27:05;;;;;;;71.70;68.20;;;;;;;9.64;67.32;103293.34;5071718;28;20133;-71
2024/01/31 05:29:30;;;;;;;67.85;64.68;;;;;;;9.63;67.37;103280.06;5068830;28;20103;-72
2024/01/31 05:31:56;;;;;;;69.47;65.88;;;;;;;9.63;67.43;103280.06;5069121;28;20031;-70
2024/01/31 05:34:22;;;;;;;67.28;63.97;;;;;;;9.62;67.44;103289.97;5054210;28;20178;-72
2024/01/31 05:36:48;;;;;;;67.57;64.25;;;;;;;9.61;67.52;103287.47;5066032;28;20028;-72
2024/01/31 05:39:13;;;;;;;67.15;63.88;;;;;;;9.61;67.50;103295.56;5070736;28;20033;-72
2024/01/31 05:41:43;;;;;;;65.22;61.47;;;;;;;9.60;67.39;103296.56;5069141;28;20119;-71
2024/01/31 05:44:09;;;;;;;65.22;61.78;;;;;;;9.59;67.33;103298.44;5071559;28;20044;-72
2024/01/31 05:46:35;;;;;;;68.47;65.10;;;;;;;9.59;67.45;103300.28;5071053;28;20056;-72
2024/01/31 05:49:02;;;;;;;72.55;67.90;;;;;;;9.60;67.45;103301.97;5071099;28;20056;-71
2024/01/31 05:51:28;;;;;;;66.68;63.28;;;;;;;9.59;67.58;103300.28;5067298;28;20400;-71
2024/01/31 05:53:53;;;;;;;64.05;60.85;;;;;;;9.59;67.40;103303.84;5069719;28;20111;-71
2024/01/31 05:56:19;;;;;;;67.68;64.07;;;;;;;9.59;67.41;103306.53;5071568;28;20036;-71
2024/01/31 05:58:44;;;;;;;65.15;61.63;;;;;;;9.60;67.49;103307.38;5061524;28;20059;-71
2024/01/31 06:01:09;;;;;;;67.93;64.18;;;;;;;9.59;67.54;103300.28;5068932;28;20123;-71
2024/01/31 06:03:35;;;;;;;66.70;63.03;;;;;;;9.58;67.36;103299.47;5070152;28;20032;-71
2024/01/31 06:06:00;;;;;;;67.78;64.45;;;;;;;9.59;67.46;103300.28;5071060;28;20469;-71
2024/01/31 06:08:26;;;;;;;70.13;66.35;;;;;;;9.58;67.38;103299.47;5069241;28;20044;-72
2024/01/31 06:10:54;;;;;;;68.82;65.28;;;;;;;9.57;67.43;103292.34;5068900;28;20043;-71
2024/01/31 06:13:20;;;;;;;65.38;62.28;;;;;;;9.55;67.41;103286.31;5057509;28;20119;-72
2024/01/31 06:15:46;;;;;;;67.53;63.72;;;;;;;9.56;67.41;103287.16;5073498;28;20028;-71
2024/01/31 06:18:14;;;;;;;66.18;62.88;;;;;;;9.56;67.40;103282.59;5073742;28;20380;-71
2024/01/31 06:20:40;;;;;;;65.43;61.83;;;;;;;9.55;67.56;103267.44;5073182;28;20089;-71
2024/01/31 06:23:09;;;;;;;65.80;62.17;;;;;;;9.55;67.26;103272.84;5063542;28;20060;-71
2024/01/31 06:25:35;;;;;;;65.63;62.13;;;;;;;9.55;67.38;103259.34;5057002;28;20024;-73
2024/01/31 06:28:01;;;;;;;65.90;62.60;;;;;;;9.54;67.35;103252.25;5056094;28;20388;-71
2024/01/31 06:30:31;;;;;;;65.70;61.63;;;;;;;9.53;67.35;103254.09;5065322;28;20040;-71
2024/01/31 06:33:05;;;;;;;67.25;63.78;;;;;;;9.53;67.39;103237.91;5061646;28;20041;-71
2024/01/31 06:35:31;;;;;;;66.32;62.80;;;;;;;9.52;67.29;103236.25;5070065;28;20127;-72
2024/01/31 06:37:56;;;;;;;64.45;61.38;;;;;;;9.52;67.27;103238.06;5071203;28;20123;-70
2024/01/31 06:40:22;;;;;;;64.47;61.28;;;;;;;9.51;67.40;103225.63;5069560;28;20036;-72
2024/01/31 06:42:48;;;;;;;67.88;64.28;;;;;;;9.50;67.33;103235.56;5067914;28;20476;-69
2024/01/31 06:45:14;;;;;;;65.30;62.10;;;;;;;9.50;67.37;103240.97;5065654;28;20028;-70
2024/01/31 06:47:40;;;;;;;66.63;62.88;;;;;;;9.50;67.45;103238.28;5053258;28;20385;-70
2024/01/31 06:50:05;;;;;;;63.60;60.65;;;;;;;9.50;67.41;103246.38;5071208;28;20056;-71
2024/01/31 06:52:31;;;;;;;66.30;62.40;;;;;;;9.49;67.34;103250.06;5064798;28;20120;-71
2024/01/31 06:54:56;;;;;;;66.10;62.33;;;;;;;9.48;67.40;103258.34;5066291;28;20048;-71
2024/01/31 06:57:21;;;;;;;65.70;62.58;;;;;;;9.46;67.57;103266.59;5070665;28;20055;-70
2024/01/31 06:59:47;;;;;;;68.70;64.90;;;;;;;9.46;67.72;103280.09;5070780;28;20058;-72
2024/01/31 07:02:12;;;;;;;66.63;63.50;;;;;;;9.46;67.34;103285.50;5061178;28;20037;-72
2024/01/31 07:04:38;;;;;;;68.10;64.65;;;;;;;9.45;67.42;103297.31;5061805;28;20036;-74
2024/01/31 07:07:03;;;;;;;67.82;63.92;;;;;;;9.45;67.58;103302.69;5070138;28;20524;-71
2024/01/31 07:09:29;;;;;;;64.90;61.60;;;;;;;9.43;67.44;103312.81;5066811;28;20086;-71
2024/01/31 07:11:56;;;;;;;68.05;64.35;;;;;;;9.43;67.38;103318.22;5066197;28;20089;-70
2024/01/31 07:14:21;;;;;;;69.72;65.97;;;;;;;9.43;67.26;103331.69;5063717;28;20040;-71
2024/01/31 07:16:47;;;;;;;69.75;65.80;;;;;;;9.44;67.47;103341.47;5068109;28;20480;-71
2024/01/31 07:19:13;;;;;;;71.32;67.22;;;;;;;9.44;67.45;103341.47;5070855;28;20086;-72
2024/01/31 07:21:39;;;;;;;68.43;64.53;;;;;;;9.45;67.60;103353.09;5065021;28;20041;-72
2024/01/31 07:24:05;;;;;;;68.45;65.00;;;;;;;9.45;67.55;103347.69;5056611;28;20583;-71
2024/01/31 07:26:30;;;;;;;69.53;64.97;;;;;;;9.44;67.29;103348.72;5070449;28;20036;-71
2024/01/31 07:28:56;;;;;;;67.70;64.00;;;;;;;9.44;67.40;103346.88;5069653;28;20144;-73
2024/01/31 07:31:21;;;;;;;67.78;64.20;;;;;;;9.43;67.31;103342.50;5066101;28;20216;-71
2024/01/31 07:33:47;;;;;;;70.03;65.78;;;;;;;9.43;67.44;103345.19;5062972;28;20044;-72
2024/01/31 07:36:13;;;;;;;67.03;63.42;;;;;;;9.43;67.39;103345.19;5059734;28;20033;-71
2024/01/31 07:38:43;;;;;;;69.63;64.95;;;;;;;9.43;67.31;103345.19;5061938;28;20183;-71
2024/01/31 07:41:08;;;;;;;67.50;64.00;;;;;;;9.42;67.31;103346.19;5067072;28;20098;-71
2024/01/31 07:43:34;;;;;;;73.05;68.53;;;;;;;9.42;67.44;103350.75;5064997;28;20497;-70
2024/01/31 07:45:59;;;;;;;70.68;66.82;;;;;;;9.41;67.31;103349.06;5068702;28;20052;-73
2024/01/31 07:48:24;;;;;;;66.38;62.97;;;;;;;9.42;67.27;103345.34;5054052;28;20037;-72
2024/01/31 07:50:50;;;;;;;68.05;64.18;;;;;;;9.41;67.30;103336.41;5069253;28;20040;-71
2024/01/31 07:53:15;;;;;;;67.88;64.00;;;;;;;9.40;67.49;103339.28;5063462;28;20047;-72
2024/01/31 07:55:41;;;;;;;69.68;65.65;;;;;;;9.40;67.40;103337.44;5052298;28;20401;-71
2024/01/31 07:58:07;;;;;;;67.03;63.45;;;;;;;9.39;67.38;103324.94;5068444;28;20034;-70
2024/01/31 08:00:32;;;;;;;66.20;62.90;;;;;;;9.40;67.32;103317.69;5070539;28;20036;-71
2024/01/31 08:02:58;;;;;;;69.53;65.75;;;;;;;9.39;67.26;103330.34;5064438;28;20538;-71
2024/01/31 08:05:23;;;;;;;67.07;63.38;;;;;;;9.40;67.42;103334.75;5054623;28;20461;-71
2024/01/31 08:07:49;;;;;;;69.32;65.40;;;;;;;9.40;67.39;103336.56;5050259;28;20580;-72
2024/01/31 08:10:14;;;;;;;65.43;62.08;;;;;;;9.39;67.24;103333.03;5067978;28;20029;-71
2024/01/31 08:12:41;;;;;;;65.63;61.65;;;;;;;9.41;67.22;103332.88;5059673;28;20039;-71
2024/01/31 08:15:07;;;;;;;68.45;64.80;;;;;;;9.39;67.37;103333.03;5064867;28;20162;-73
2024/01/31 08:17:32;;;;;;;69.35;65.15;;;;;;;9.40;67.49;103333.88;5069627;28;20108;-71
2024/01/31 08:19:58;;;;;;;67.65;64.00;;;;;;;9.39;67.34;103326.81;5053129;28;20040;-71
2024/01/31 08:22:23;;;;;;;68.35;64.85;;;;;;;9.37;67.38;103335.06;5064627;28;20049;-72
2024/01/31 08:24:49;;;;;;;71.07;67.32;;;;;;;9.37;67.33;103326.13;5059505;28;20029;-72
2024/01/31 08:27:17;;;;;;;65.78;61.97;;;;;;;9.37;67.32;103326.97;5067541;28;20032;-71
2024/01/31 08:29:43;;;;;;;67.57;64.35;;;;;;;9.37;67.35;103321.56;5062889;28;20037;-71
2024/01/31 08:32:09;;;;;;;66.72;62.97;;;;;;;9.36;67.37;103321.78;5059996;28;20039;-71
2024/01/31 08:34:34;;;;;;;63.92;60.22;;;;;;;9.36;67.16;103314.50;5055099;28;20040;-71
2024/01/31 08:37:01;;;;;;;71.28;66.80;;;;;;;9.36;67.19;103317.22;5050260;28;20408;-72
2024/01/31 08:39:26;;;;;;;67.65;63.70;;;;;;;9.36;67.30;103316.38;5068925;28;20040;-70
2024/01/31 08:41:52;;;;;;;71.55;67.35;;;;;;;9.35;67.12;103315.53;5063578;28;20498;-70
2024/01/31 08:44:17;;;;;;;71.45;67.35;;;;;;;9.35;67.32;103309.28;5064798;28;20044;-71
2024/01/31 08:46:43;;;;;;;65.13;61.67;;;;;;;9.34;67.29;103311.13;5067153;28;20094;-71
2024/01/31 08:49:08;;;;;;;67.95;64.20;;;;;;;9.34;67.30;103297.66;5067137;28;20046;-71
2024/01/31 08:51:35;;;;;;;66.55;62.58;;;;;;;9.34;67.36;103294.94;5069934;28;20107;-72
2024/01/31 08:54:01;;;;;;;66.82;63.30;;;;;;;9.35;67.81;103303.88;5065121;28;20115;-70
2024/01/31 08:56:26;;;;;;;67.50;63.53;;;;;;;9.33;67.44;103293.28;5061436;28;20461;-71
2024/01/31 08:58:52;;;;;;;69.55;65.35;;;;;;;9.32;67.45;103284.34;5063553;28;20040;-71
2024/01/31 09:01:17;;;;;;;71.40;66.47;;;;;;;9.34;67.20;103275.25;5068855;28;20067;-70
2024/01/31 09:03:43;;;;;;;70.47;66.35;;;;;;;9.32;67.27;103272.69;5067797;28;20040;-72
2024/01/31 09:06:08;;;;;;;68.13;64.03;;;;;;;9.32;67.29;103272.69;5066659;28;20044;-70
2024/01/31 09:08:34;;;;;;;67.65;64.00;;;;;;;9.31;67.63;103260.25;5067018;28;20056;-71
2024/01/31 09:10:59;;;;;;;71.72;66.95;;;;;;;9.31;67.35;103261.06;5063210;28;20046;-72
2024/01/31 09:13:24;;;;;;;70.88;66.15;;;;;;;9.30;67.21;103254.00;5061202;28;20487;-71
2024/01/31 09:15:50;;;;;;;70.20;65.15;;;;;;;9.31;67.41;103244.06;5065549;28;20041;-70
2024/01/31 09:18:15;;;;;;;72.15;67.45;;;;;;;9.29;67.42;103246.91;5051044;28;20542;-71
2024/01/31 09:20:41;;;;;;;65.13;61.08;;;;;;;9.30;67.26;103242.38;5049517;28;20070;-76
2024/01/31 09:23:06;;;;;;;70.03;65.63;;;;;;;9.30;67.29;103239.69;5066836;28;20849;-71
2024/01/31 09:25:32;;;;;;;67.03;63.63;;;;;;;9.29;67.38;103241.53;5051042;28;20041;-70
2024/01/31 09:27:58;;;;;;;72.88;68.05;;;;;;;9.28;67.39;103245.25;5051559;28;20040;-71
2024/01/31 09:30:23;;;;;;;61.53;58.58;;;;;;;9.28;67.22;103247.94;5065950;28;20373;-71
2024/01/31 09:32:49;;;;;;;71.50;66.63;;;;;;;9.28;67.43;103239.84;5063882;28;20036;-71
2024/01/31 09:35:14;;;;;;;71.15;66.97;;;;;;;9.29;67.36;103232.59;5055338;28;20041;-71
2024/01/31 09:37:39;;;;;;;78.40;72.07;;;;;;;9.29;67.42;103224.50;5056292;28;20501;-70
2024/01/31 09:40:06;;;;;;;65.75;62.25;;;;;;;9.29;67.42;103208.31;5062974;28;20086;-71
2024/01/31 09:42:31;;;;;;;65.43;62.13;;;;;;;9.29;67.48;103211.03;5064264;28;20060;-71
2024/01/31 09:44:57;;;;;;;76.15;69.38;;;;;;;9.29;67.32;103211.03;5057620;28;20072;-71
2024/01/31 09:47:28;;;;;;;72.72;68.28;;;;;;;9.28;67.43;103212.03;5060664;28;20060;-71
2024/01/31 09:49:56;;;;;;;73.43;69.00;;;;;;;9.28;67.52;103210.19;5070018;28;20040;-71
2024/01/31 09:52:29;;;;;;;68.20;64.13;;;;;;;9.28;67.52;103217.44;5054873;28;20047;-70
2024/01/31 09:54:58;;;;;;;65.55;61.78;;;;;;;9.27;67.33;103229.22;5070532;28;20036;-71
2024/01/31 09:57:27;;;;;;;64.35;61.22;;;;;;;9.25;67.62;103226.72;5086259;28;20045;-72
2024/01/31 09:59:55;;;;;;;68.97;63.55;;;;;;;9.26;67.54;103225.69;5069131;28;20120;-71
2024/01/31 10:02:21;;;;;;;67.32;63.83;;;;;;;9.26;67.51;103233.78;5069548;28;20033;-71
2024/01/31 10:04:48;;;;;;;68.43;64.47;;;;;;;9.26;67.69;103230.25;5069163;28;20029;-70
2024/01/31 10:07:30;;;;;;;62.92;59.85;;;;;;;9.26;67.60;103236.47;5065188;28;20041;-71
2024/01/31 10:09:56;;;;;;;72.75;68.30;;;;;;;9.26;67.55;103238.34;5066795;28;20043;-73
2024/01/31 10:12:22;;;;;;;73.45;68.85;;;;;;;9.27;67.62;103248.97;5056687;28;20532;-72
2024/01/31 10:14:48;;;;;;;65.05;61.67;;;;;;;9.26;67.38;103243.72;5069509;28;20040;-71
2024/01/31 10:17:21;;;;;;;69.93;66.07;;;;;;;9.26;67.38;103247.25;5068625;28;20024;-74
2024/01/31 10:19:49;;;;;;;74.20;69.68;;;;;;;9.26;67.46;103247.25;5059570;28;20123;-72
2024/01/31 10:22:16;;;;;;;70.25;66.13;;;;;;;9.26;67.53;103241.88;5057820;28;20051;-72
2024/01/31 10:24:48;;;;;;;67.97;64.03;;;;;;;9.28;67.62;103252.50;5066486;28;20123;-74
2024/01/31 10:27:14;;;;;;;64.72;60.97;;;;;;;9.28;67.49;103250.63;5065943;28;20512;-71
2024/01/31 10:29:40;;;;;;;70.85;66.20;;;;;;;9.28;67.55;103256.03;5069729;28;20167;-71
2024/01/31 10:32:06;;;;;;;72.75;68.05;;;;;;;9.29;67.49;103251.47;5067107;28;20086;-72
2024/01/31 10:34:33;;;;;;;67.13;63.40;;;;;;;9.29;67.58;103256.88;5063863;28;20070;-73
2024/01/31 10:36:59;;;;;;;69.78;65.78;;;;;;;9.29;67.50;103255.00;5064925;28;20365;-70
2024/01/31 10:39:24;;;;;;;65.40;62.40;;;;;;;9.29;67.50;103255.00;5051801;28;20453;-71
2024/01/31 10:41:50;;;;;;;68.03;64.30;;;;;;;9.27;67.86;103248.97;5066039;28;20056;-71
2024/01/31 10:44:16;;;;;;;70.50;66.07;;;;;;;9.28;67.55;103256.03;5061252;28;20064;-71
2024/01/31 10:46:48;;;;;;;67.72;64.13;;;;;;;9.29;67.51;103251.47;5066669;28;20062;-72
2024/01/31 10:49:16;;;;;;;70.18;66.32;;;;;;;9.29;67.56;103249.59;5055687;28;20047;-74
2024/01/31 10:51:55;;;;;;;69.78;65.97;;;;;;;9.29;67.65;103248.78;5054226;28;20040;-70
2024/01/31 10:54:22;;;;;;;;;;;;;;;9.29;67.56;103249.59;5066155;28;20064;-70
2024/01/31 10:56:48;;;;;;;60.55;57.47;;;;;;;9.28;67.35;103241.72;5062884;28;20306;-70
2024/01/31 10:59:16;;;;;;;61.00;57.70;;;;;;;9.26;67.47;103246.44;5061375;28;20302;-71
2024/01/31 11:01:52;;;;;;;60.60;57.63;;;;;;;9.27;67.45;103240.00;5058580;28;20093;-71
2024/01/31 11:04:18;;;;;;;62.60;59.50;;;;;;;9.25;67.52;103226.72;5058853;28;20119;-70
2024/01/31 11:06:50;;;;;;;64.00;60.30;;;;;;;9.25;67.44;103221.31;5065654;28;20029;-72
2024/01/31 11:09:25;;;;;;;69.40;65.47;;;;;;;9.26;67.54;103219.47;5052647;28;20193;-71